createdAt,value
2023-02-03T00:09:19.787Z,9.11
2023-02-03T00:19:22.463Z,9.29
2023-02-03T00:29:26.636Z,9.20
2023-02-03T00:39:29.367Z,9.12
2023-02-03T00:49:33.435Z,9.27
2023-02-03T00:59:36.139Z,9.33
2023-02-03T01:09:40.280Z,9.33
2023-02-03T01:19:42.900Z,9.35
2023-02-03T01:29:46.871Z,9.40
2023-02-03T01:39:49.519Z,9.34
2023-02-03T01:49:59.031Z,9.38
2023-02-03T02:00:03.182Z,9.37
2023-02-03T02:10:08.312Z,9.36
2023-02-03T02:20:39.473Z,9.45
2023-02-03T02:30:58.090Z,9.47
2023-02-03T02:41:08.931Z,9.46
2023-02-03T02:51:15.662Z,9.63
2023-02-03T03:01:20.145Z,9.48
2023-02-03T03:11:24.470Z,9.68
2023-02-03T03:21:35.385Z,9.59
2023-02-03T03:31:38.427Z,9.56
2023-02-03T03:41:49.021Z,9.65
2023-02-03T03:51:57.307Z,9.68
2023-02-03T04:02:04.467Z,9.76
2023-02-03T04:12:14.096Z,9.80
2023-02-03T04:22:18.068Z,9.74
2023-02-03T04:32:20.973Z,9.75
2023-02-03T04:42:25.566Z,9.84
2023-02-03T04:52:28.399Z,9.84
2023-02-03T05:02:32.511Z,9.92
2023-02-03T05:12:35.139Z,9.92
2023-02-03T05:22:39.178Z,9.90
2023-02-03T05:32:41.823Z,10.03
2023-02-03T05:42:50.686Z,9.86
2023-02-03T05:52:54.530Z,10.08
2023-02-03T06:03:02.233Z,10.05
2023-02-03T06:13:10.529Z,9.99
2023-02-03T06:23:17.025Z,9.94
2023-02-03T06:33:20.171Z,10.10
2023-02-03T06:43:24.158Z,9.85
2023-02-03T06:53:26.881Z,9.83
2023-02-03T07:03:30.901Z,9.90
2023-02-03T07:13:33.580Z,10.25
2023-02-03T07:23:37.594Z,10.27
2023-02-03T07:33:40.719Z,10.08
2023-02-03T07:43:44.770Z,10.16
2023-02-03T07:53:47.488Z,10.78
2023-02-03T08:03:53.588Z,10.48
2023-02-03T08:13:56.881Z,10.54
2023-02-03T08:24:00.835Z,10.54
2023-02-03T08:34:03.520Z,10.44
2023-02-03T08:44:07.526Z,10.39
2023-02-03T08:54:10.168Z,10.46
2023-02-03T09:04:14.274Z,10.66
2023-02-03T09:14:16.873Z,10.50
2023-02-03T09:24:20.851Z,10.51
2023-02-03T09:34:23.652Z,10.80
2023-02-03T09:44:35.138Z,10.87
2023-02-03T09:54:44.435Z,11.19
2023-02-03T10:04:57.086Z,11.05
2023-02-03T10:15:17.667Z,11.05
2023-02-03T10:25:26.831Z,11.24
2023-02-03T10:35:36.353Z,11.15
2023-02-03T10:45:40.958Z,11.33
2023-02-03T10:55:45.389Z,11.76
2023-02-03T11:06:04.007Z,11.55
2023-02-03T11:16:10.731Z,11.42
2023-02-03T11:26:18.916Z,11.81
2023-02-03T11:36:21.995Z,18.13
2023-02-03T11:46:26.086Z,17.66
2023-02-03T11:56:36.671Z,14.03
2023-02-03T12:07:00.893Z,13.89
2023-02-03T12:17:26.704Z,14.45
2023-02-03T12:27:44.905Z,13.23
2023-02-03T12:37:56.225Z,14.99
2023-02-03T12:48:06.120Z,12.37
2023-02-03T12:58:12.640Z,11.89
2023-02-03T13:08:24.835Z,11.56
2023-02-03T13:18:32.582Z,13.23
2023-02-03T13:28:53.735Z,14.65
2023-02-03T13:39:21.479Z,14.69
2023-02-03T13:49:29.733Z,15.90
2023-02-03T13:59:42.269Z,12.85
2023-02-03T14:10:06.084Z,12.38
2023-02-03T14:20:42.215Z,13.19
2023-02-03T14:31:10.498Z,12.32
2023-02-03T14:41:20.856Z,11.27
2023-02-03T14:51:33.086Z,10.81
2023-02-03T15:02:11.149Z,10.37
2023-02-03T15:12:26.044Z,10.29
2023-02-03T15:22:31.075Z,10.19
2023-02-03T15:32:39.937Z,9.84
2023-02-03T15:42:53.413Z,9.71
2023-02-03T15:53:01.216Z,9.45
2023-02-03T16:03:07.576Z,9.38
2023-02-03T16:13:24.187Z,9.12
2023-02-03T16:23:29.730Z,8.82
2023-02-03T16:33:51.477Z,8.59
2023-02-03T16:44:11.725Z,8.59
2023-02-03T16:54:18.336Z,8.45
2023-02-03T17:04:20.955Z,8.33
2023-02-03T17:14:25.049Z,8.35
2023-02-03T17:24:27.799Z,8.38
2023-02-03T17:34:32.211Z,8.36
2023-02-03T17:54:56.841Z,8.47
2023-02-03T18:04:59.474Z,8.26
2023-02-03T18:15:03.949Z,8.46
2023-02-03T18:25:09.560Z,8.47
2023-02-03T18:35:16.726Z,8.41
2023-02-03T18:45:19.616Z,8.57
2023-02-03T18:55:23.816Z,8.33
2023-02-03T19:05:26.488Z,8.52
2023-02-03T19:15:30.721Z,8.53
2023-02-03T19:25:33.507Z,8.77
2023-02-03T19:35:38.519Z,8.58
2023-02-03T19:45:41.341Z,8.61
2023-02-03T19:55:46.147Z,8.61
2023-02-03T20:05:48.804Z,8.60
2023-02-03T20:15:53.359Z,8.66
2023-02-03T20:25:56.259Z,8.46
2023-02-03T20:36:00.465Z,8.64
2023-02-03T20:46:03.433Z,8.73
2023-02-03T20:56:14.281Z,8.91
2023-02-03T21:06:18.697Z,8.67
2023-02-03T21:16:26.077Z,8.76
2023-02-03T21:26:30.037Z,8.68
2023-02-03T21:36:36.578Z,8.79
2023-02-03T21:46:39.864Z,8.66
2023-02-03T21:56:45.308Z,8.53
2023-02-03T22:06:50.008Z,8.50
2023-02-03T22:16:54.032Z,8.55
2023-02-03T22:27:00.207Z,8.32
2023-02-03T22:37:04.207Z,8.41
2023-02-03T22:47:07.291Z,8.44
2023-02-03T22:57:11.343Z,8.60
2023-02-03T23:07:14.394Z,8.39
2023-02-03T23:17:18.513Z,8.30
2023-02-03T23:27:21.217Z,7.99
2023-02-03T23:37:25.254Z,7.71
2023-02-03T23:47:27.865Z,7.83
2023-02-03T23:57:31.902Z,7.90
